Elbow, Canada
Current Conditions -  °F | °C
As of 4:00 AM on Thursday 23 Oct 2014 (Local Time) from CYMJ Reporting Station
Few Clouds Few Clouds  
Wind Chill: 41°   Ceiling: Unl
Heat Index: 41°   Visibility: 15mi
Dew Point: 36°   Wind: 0mph
Humidity: 81%   Direction: NA
Pressure: 29.74"   Gusts: NA
Location:  51.12°N, 106.6°W
Report Text: CYMJ 231000Z 00000KT 15SM FEW250 05/02 A2974 RMK CI1 FST OBSSLP084
Loading
Personal Weather Stations






























Interactive Weather Map
Tropical Storm Tracking
New forecast layout! Learn more

10-Day Weather Forecast

Advertisements
Track Severe Weather on mobile